Latest Weather Observations for Burketown Airport

IDQ60801

Issued at 10:02 pm EST Saturday 20 December 2014 (issued every 30 minutes, with the page automatically refreshed every 10 minutes)

About weather observations | Map of weather stations | Latest weather observations for QLD | Other Formats
Station Details ID: 029077 Name: BURKETOWN AIRPORT Lat: -17.75 Lon: 139.54 Height: 5.7 m
Data from the previous 72 hours. | See also: Recent months at Burketown Airport
Date/Time
EST
Temp
°C
App
Temp
°C
Dew
Point
Rel
Hum
%
Delta-T
°C
Wind Press
QNH
hPa
Press
MSL
hPa
Rain
since 9 am
mm
Dir
 
Spd
km/h
Gust
km/h
Spd
kts
Gust
kts
20/10:00pm 30.2 34.6 25.7 77 3.2 N 13 15 7 8 1006.9 - 0.8
20/09:30pm 30.3 34.8 25.8 77 3.2 N 13 15 7 8 1006.6 - 0.8
20/09:00pm 30.4 34.8 24.5 70 4.1 N 9 13 5 7 1006.3 1006.2 0.8
20/08:30pm 31.2 35.2 25.1 70 4.3 N 13 17 7 9 1006.4 - 0.8
20/08:00pm 31.8 34.8 24.7 66 5.0 N 17 22 9 12 1006.1 - 0.8
20/07:30pm 32.0 34.3 24.1 63 5.5 N 19 24 10 13 1006.0 - 0.8
20/07:00pm 32.5 34.7 24.3 62 5.7 N 20 28 11 15 1005.7 - 0.8
20/06:30pm 33.6 35.4 24.2 58 6.6 N 22 30 12 16 1005.4 - 0.8
20/06:00pm 34.2 35.4 24.5 57 6.8 N 26 35 14 19 1005.2 1005.1 0.8
20/05:30pm 34.5 35.5 24.1 54 7.3 N 26 33 14 18 1004.7 - 0.8
20/05:00pm 36.5 36.9 23.7 47 9.0 NNE 28 39 15 21 1004.5 - 0.8
20/04:30pm 38.0 37.5 20.8 37 11.7 N 24 32 13 17 1004.2 - 0.8
20/04:00pm 37.8 37.4 20.1 35 11.9 NNE 22 32 12 17 1004.4 - 0.8
20/03:30pm 38.6 38.1 20.8 35 12.1 NE 24 39 13 21 1004.5 - 0.8
20/03:00pm 38.1 36.7 20.4 35 12.0 N 28 41 15 22 1004.9 1004.8 0.8
20/02:30pm 37.2 37.4 20.1 37 11.5 N 19 28 10 15 1005.5 - 0.8
20/02:00pm 35.5 38.4 25.1 55 7.4 N 19 28 10 15 1005.9 - 0.8
20/01:59pm 35.1 37.2 23.8 52 7.9 N 19 28 10 15 1006.0 - 0.8
20/01:37pm 29.7 28.9 21.6 61 5.4 N 28 52 15 28 1006.3 - 0.6
20/01:36pm 30.6 30.1 21.4 58 6.2 N 26 48 14 26 1006.3 - 0.4
20/01:30pm 36.6 36.3 20.4 38 10.9 N 22 37 12 20 1006.4 - 0.0
20/01:00pm 38.5 38.5 17.3 28 13.8 NE 13 20 7 11 1006.8 - 0.0
20/12:30pm 38.7 38.1 17.5 29 13.8 E 17 26 9 14 1007.5 - 0.0
20/12:00pm 39.3 38.9 18.0 29 14.0 ENE 17 24 9 13 1007.8 1007.7 0.0
20/11:30am 37.4 37.5 17.4 30 13.0 ESE 13 20 7 11 1008.4 - 0.0
20/11:00am 37.1 36.6 18.6 33 12.2 E 19 22 10 12 1008.7 - 0.0
20/10:30am 38.1 38.4 19.5 33 12.4 ESE 17 28 9 15 1009.1 - 0.0
20/10:00am 36.9 37.5 19.4 36 11.6 ESE 15 26 8 14 1009.3 - 0.0
20/09:30am 36.2 37.6 19.6 37 11.0 SSE 11 24 6 13 1009.2 - 0.0
20/09:00am 36.0 36.8 19.9 39 10.8 SSW 15 22 8 12 1008.9 1008.8 0.0
20/08:30am 34.2 36.2 22.3 50 8.2 SSW 15 20 8 11 1008.7 - 0.0
20/08:00am 32.3 34.9 23.3 59 6.2 SSW 15 20 8 11 1008.8 - 0.0
20/07:30am 31.2 34.8 23.8 64 5.1 SW 11 13 6 7 1008.7 - 0.0
20/07:00am 29.2 34.0 24.1 74 3.5 SW 6 7 3 4 1008.5 - 0.0
20/06:30am 27.3 32.1 24.4 84 2.0 SW 7 7 4 4 1008.2 - 0.0
20/06:00am 26.8 31.1 24.3 86 1.7 SW 9 9 5 5 1007.9 1007.8 0.0
20/05:30am 27.8 32.6 24.2 81 2.5 S 6 9 3 5 1007.4 - 0.0
20/05:00am 28.0 32.8 24.4 81 2.5 SSW 7 9 4 5 1007.0 - 0.0
20/04:30am 28.1 33.2 24.7 82 2.4 SSW 6 7 3 4 1007.1 - 0.0
20/04:00am 27.9 32.2 24.3 81 2.5 WSW 9 11 5 6 1007.3 - 0.0
20/03:30am 28.0 32.8 24.4 81 2.5 W 7 9 4 5 1007.0 - 0.0
20/03:00am 27.5 31.7 24.1 82 2.4 WNW 9 11 5 6 1007.2 1007.1 0.0
20/02:30am 27.8 32.1 24.2 81 2.5 NW 9 11 5 6 1007.2 - 0.0
20/02:00am 28.0 32.0 24.4 81 2.5 NW 11 13 6 7 1007.3 - 0.0
20/01:30am 28.5 33.2 24.3 78 2.9 NW 7 9 4 5 1007.6 - 0.0
20/01:00am 28.4 32.8 23.8 76 3.2 NW 7 9 4 5 1007.9 - 0.0
20/12:30am 28.6 32.3 23.9 75 3.2 WNW 11 11 6 6 1008.4 - 0.0
20/12:00am 29.2 33.3 23.9 73 3.7 WNW 9 11 5 6 1008.5 1008.4 0.0
 
Date/Time
EST
Temp
°C
App
Temp
°C
Dew
Point
Rel
Hum
%
Delta-T
°C
Wind Press
QNH
hPa
Press
MSL
hPa
Rain
since 9 am
mm
Dir
 
Spd
km/h
Gust
km/h
Spd
kts
Gust
kts
19/11:30pm 29.4 33.5 24.0 72 3.7 WNW 9 11 5 6 1008.9 - 0.0
19/11:00pm 29.9 34.5 24.1 71 4.0 NNW 7 7 4 4 1009.2 - 0.0
19/10:30pm 30.1 34.6 24.0 70 4.2 NNW 7 9 4 5 1009.1 - 0.0
19/10:00pm 30.3 34.3 23.7 68 4.6 N 9 11 5 6 1008.9 - 0.0
19/09:30pm 30.7 34.5 24.1 68 4.6 N 11 13 6 7 1008.7 - 0.0
19/09:00pm 31.0 34.7 23.9 66 4.9 N 11 13 6 7 1008.5 1008.4 0.0
19/08:30pm 31.5 34.8 23.9 64 5.3 N 13 15 7 8 1008.2 - 0.0
19/08:00pm 32.0 35.6 23.8 62 5.7 N 11 15 6 8 1007.6 - 0.0
19/07:30pm 32.7 35.5 23.6 58 6.3 N 15 19 8 10 1007.2 - 0.0
19/07:00pm 33.3 35.3 23.0 54 7.1 N 17 22 9 12 1006.9 - 0.0
19/06:30pm 34.6 36.0 22.6 49 8.3 NNE 19 26 10 14 1006.5 - 0.0
19/06:00pm 35.6 37.0 22.5 46 9.0 NNE 19 26 10 14 1006.5 1006.4 0.0
19/05:30pm 36.4 38.2 22.5 44 9.6 N 17 24 9 13 1006.3 - 0.0
19/05:00pm 36.1 37.4 22.3 45 9.5 N 19 26 10 14 1005.9 - 0.0
19/04:30pm 37.0 37.7 22.3 42 10.1 NNE 22 28 12 15 1006.2 - 0.0
19/04:00pm 37.6 39.0 22.5 41 10.5 NNE 19 30 10 16 1006.3 - 0.0
19/03:30pm 36.2 37.3 22.0 43 9.7 NNE 19 28 10 15 1006.6 - 0.0
19/03:00pm 40.4 41.0 17.8 27 14.9 SW 11 22 6 12 1007.0 1006.9 0.0
19/02:30pm 40.3 40.2 18.8 28 14.3 SSW 17 28 9 15 1007.4 - 0.0
19/02:00pm 38.5 39.2 18.9 32 13.0 WSW 13 24 7 13 1008.0 - 0.0
19/01:30pm 37.4 38.7 19.3 34 12.0 SSE 11 17 6 9 1008.5 - 0.0
19/01:00pm 37.6 39.0 19.5 34 12.1 ENE 11 20 6 11 1009.0 - 0.0
19/12:30pm 36.1 37.3 19.1 36 11.2 NNE 11 20 6 11 1009.6 - 0.0
19/12:00pm 36.6 38.6 20.0 38 11.1 NW 9 17 5 9 1010.1 1010.0 0.0
19/11:30am 35.9 37.8 20.6 41 10.3 NE 11 17 6 9 1010.5 - 0.0
19/11:00am 34.9 36.6 19.3 40 10.3 ENE 9 13 5 7 1010.9 - 0.0
19/10:30am 34.3 37.4 21.4 47 8.7 W 7 11 4 6 1011.1 - 0.0
19/10:00am 33.4 37.3 21.9 51 7.8 SE 4 13 2 7 1011.5 - 0.0
19/09:30am 31.5 34.7 21.7 56 6.6 SSE 7 15 4 8 1011.7 - 0.0
19/09:00am 30.6 33.6 21.9 59 5.9 SSE 9 15 5 8 1011.8 1011.7 0.0
19/08:30am 29.3 31.3 21.5 63 5.2 S 13 17 7 9 1011.7 - 0.0
19/08:00am 28.4 29.6 21.4 66 4.7 SSE 17 20 9 11 1011.5 - 0.0
19/07:30am 27.1 27.9 21.4 71 3.8 S 19 24 10 13 1011.3 - 0.0
19/07:00am 26.1 28.0 21.3 75 3.2 S 13 17 7 9 1011.0 - 0.0
19/06:30am 25.5 27.8 21.4 78 2.7 S 11 13 6 7 1010.5 - 0.0
19/06:00am 25.4 27.7 21.3 78 2.7 S 11 13 6 7 1010.6 1010.5 0.0
19/05:30am 25.6 27.9 21.3 77 2.8 SSE 11 15 6 8 1010.1 - 0.0
19/05:00am 25.8 27.4 21.5 77 2.9 SSE 15 19 8 10 1009.5 - 0.0
19/04:30am 26.1 27.7 21.5 76 3.1 S 15 17 8 9 1009.5 - 0.0
19/04:00am 26.4 28.3 21.4 74 3.3 S 13 15 7 8 1009.6 - 0.0
19/03:30am 26.6 28.3 21.6 74 3.3 S 15 20 8 11 1009.2 - 0.0
19/03:00am 27.2 30.0 20.8 68 4.2 SSE 7 9 4 5 1008.9 1008.8 0.0
19/02:30am 27.7 30.1 20.8 66 4.6 SSE 9 11 5 6 1008.8 - 0.0
19/02:00am 28.0 30.0 20.8 65 4.8 E 11 15 6 8 1008.5 - 0.0
19/01:30am 28.3 29.6 20.8 63 5.0 E 15 19 8 10 1009.1 - 0.0
19/01:00am 28.5 29.5 21.0 64 5.0 E 17 20 9 11 1009.3 - 0.0
19/12:30am 28.7 30.2 21.2 64 5.0 ESE 15 20 8 11 1010.0 - 0.0
19/12:00am 29.1 29.9 21.3 62 5.2 E 19 26 10 14 1010.6 1010.5 0.0
 
Date/Time
EST
Temp
°C
App
Temp
°C
Dew
Point
Rel
Hum
%
Delta-T
°C
Wind Press
QNH
hPa
Press
MSL
hPa
Rain
since 9 am
mm
Dir
 
Spd
km/h
Gust
km/h
Spd
kts
Gust
kts
18/11:30pm 29.5 30.3 21.7 63 5.2 ESE 20 28 11 15 1011.0 - 0.0
18/11:00pm 29.8 30.9 22.0 63 5.3 E 19 24 10 13 1011.2 - 0.0
18/10:30pm 29.9 31.5 22.1 63 5.3 ESE 17 26 9 14 1011.3 - 0.0
18/10:00pm 29.9 31.3 21.8 62 5.5 ESE 17 22 9 12 1011.0 - 0.0
18/09:30pm 30.0 31.7 21.7 61 5.6 SE 15 24 8 13 1010.7 - 0.0
18/09:00pm 30.1 32.1 22.3 63 5.3 SE 15 20 8 11 1010.1 1010.0 0.0
18/08:30pm 31.3 32.4 22.0 57 6.3 SE 19 28 10 15 1009.7 - 0.0
18/08:00pm 31.9 32.7 21.4 53 7.1 ESE 19 24 10 13 1009.4 - 0.0
18/07:30pm 32.8 36.0 23.7 58 6.3 E 13 17 7 9 1009.0 - 0.0
18/07:00pm 33.2 36.8 23.8 57 6.6 E 11 13 6 7 1008.5 - 0.0
18/06:30pm 33.4 36.6 23.7 56 6.8 NE 13 19 7 10 1007.9 - 0.0
18/06:00pm 33.7 35.6 23.7 56 7.0 N 20 28 11 15 1006.6 1006.5 0.0
18/05:30pm 33.8 35.9 24.7 59 6.4 N 22 28 12 15 1006.2 - 0.0
18/05:00pm 34.1 35.3 21.5 47 8.5 N 17 20 9 11 1006.0 - 0.0
18/04:30pm 33.4 35.3 20.5 46 8.6 NW 11 15 6 8 1006.7 - 0.0
18/04:00pm 31.7 31.0 20.3 50 7.6 W 24 33 13 18 1006.5 - 0.0
18/03:30pm 34.8 37.5 22.8 49 8.3 NNE 13 17 7 9 1006.9 - 0.0
18/03:00pm 34.6 37.2 22.6 49 8.3 N 13 17 7 9 1007.1 1007.0 0.0
18/02:30pm 32.9 33.7 21.7 51 7.6 SW 20 35 11 19 1007.7 - 0.0
18/02:05pm 31.4 29.0 21.0 54 7.0 S 35 54 19 29 1008.7 - 0.0
18/02:00pm 31.7 27.8 20.3 50 7.6 SSW 41 56 22 30 1008.5 - 0.0
18/01:49pm 33.1 31.9 21.6 51 7.8 S 30 48 16 26 1008.5 - 0.0
18/01:30pm 36.2 38.3 24.1 49 8.5 N 20 28 11 15 1007.9 - 0.0
18/01:00pm 37.1 37.2 23.2 45 9.7 N 28 43 15 23 1007.8 - 0.0
18/12:30pm 38.5 39.8 24.1 44 10.2 N 24 37 13 20 1008.1 - 0.0
18/12:00pm 38.7 39.4 22.2 38 11.4 NNW 22 32 12 17 1008.6 1008.5 0.0
18/11:30am 38.2 39.9 23.4 42 10.4 NNW 20 32 11 17 1008.7 - 0.0
18/11:00am 38.0 40.5 24.7 46 9.5 NNW 20 28 11 15 1009.1 - 0.0
18/10:30am 35.6 37.4 24.2 51 8.0 NNW 22 33 12 18 1009.0 - 0.0
18/10:00am 35.8 37.5 24.7 52 7.9 NNW 24 30 13 16 1009.3 - 0.0
18/09:30am 34.9 35.9 24.2 53 7.5 N 26 35 14 19 1009.1 - 0.0
18/09:00am 34.2 35.0 24.5 57 6.8 NNW 28 35 15 19 1008.8 1008.7 0.0
18/08:30am 33.3 35.0 24.7 60 6.1 NNW 24 33 13 18 1008.8 - 0.0
18/08:00am 32.5 35.5 25.6 67 4.9 NNW 20 28 11 15 1008.8 - 0.0
18/07:30am 30.8 34.0 25.6 74 3.7 NNW 19 24 10 13 1008.6 - 0.0
18/07:00am 28.3 33.4 25.5 85 2.0 NNW 9 11 5 6 1008.3 - 0.0
18/06:30am 26.9 31.7 25.1 90 1.3 NW 9 11 5 6 1007.9 - 0.0
18/06:00am 26.6 31.3 25.0 91 1.1 NNW 9 11 5 6 1007.5 1007.4 0.0
18/05:30am 26.4 30.6 24.8 91 1.1 NNW 11 11 6 6 1007.1 - 0.0
18/05:00am 26.6 30.8 24.8 90 1.3 NNW 11 13 6 7 1006.6 - 0.0
18/04:30am 26.9 31.8 24.7 88 1.5 NNW 7 9 4 5 1006.7 - 0.0
18/04:00am 26.7 31.1 24.4 87 1.6 NW 9 11 5 6 1006.7 - 0.0
18/03:30am 27.3 31.5 24.7 86 1.8 NNW 11 13 6 7 1006.2 - 0.0
18/03:00am 27.8 31.9 24.6 83 2.2 NW 11 13 6 7 1006.3 1006.2 0.0
18/02:30am 28.4 32.1 24.6 80 2.6 NW 13 15 7 8 1006.6 - 0.0
18/02:00am 28.9 31.9 24.7 78 2.9 NW 17 19 9 10 1006.5 - 0.0
18/01:30am 28.8 32.4 25.0 80 2.7 NW 15 20 8 11 1006.8 - 0.0
18/01:00am 28.5 32.8 24.9 81 2.5 NNW 11 15 6 8 1007.3 - 0.0
18/12:30am 28.7 32.7 25.1 81 2.5 NNW 13 15 7 8 1007.3 - 0.0
18/12:00am 28.7 33.1 25.1 81 2.5 NNW 11 13 6 7 1007.7 1007.6 0.0
 
Date/Time
EST
Temp
°C
App
Temp
°C
Dew
Point
Rel
Hum
%
Delta-T
°C
Wind Press
QNH
hPa
Press
MSL
hPa
Rain
since 9 am
mm
Dir
 
Spd
km/h
Gust
km/h
Spd
kts
Gust
kts
17/11:30pm 29.6 33.6 25.6 79 2.8 NNW 15 17 8 9 1008.0 - 0.0
17/11:00pm 29.8 33.7 25.5 78 3.0 NNW 15 19 8 10 1007.9 - 0.0
17/10:30pm 30.1 33.6 25.4 76 3.3 NNW 17 20 9 11 1007.9 - 0.0

Other Formats:

Comma delimited format used in spreadsheet applications
http://www.bom.gov.au/fwo/IDQ60801/IDQ60801.94260.axf

JavaScript Object Notation format (JSON) in row-major order
http://www.bom.gov.au/fwo/IDQ60801/IDQ60801.94260.json